sensor_id;sensor_type;location;lat;lon;timestamp;pressure;altitude;pressure_sealevel;temperature;humidity
63399;BME280;49533;-34.520;150.798;2023-04-28T00:01:44;100631.53;;;22.71;51.45
63399;BME280;49533;-34.520;150.798;2023-04-28T00:04:12;100588.69;;;22.50;51.53
63399;BME280;49533;-34.520;150.798;2023-04-28T00:06:39;100610.16;;;22.75;51.83
63399;BME280;49533;-34.520;150.798;2023-04-28T00:09:06;100614.56;;;22.79;51.60
63399;BME280;49533;-34.520;150.798;2023-04-28T00:11:37;100580.84;;;22.63;51.82
63399;BME280;49533;-34.520;150.798;2023-04-28T00:14:04;100603.50;;;22.83;51.51
63399;BME280;49533;-34.520;150.798;2023-04-28T00:16:31;100577.72;;;22.68;51.54
63399;BME280;49533;-34.520;150.798;2023-04-28T00:18:59;100594.41;;;22.90;50.75
63399;BME280;49533;-34.520;150.798;2023-04-28T00:21:26;100500.03;;;22.32;51.07
63399;BME280;49533;-34.520;150.798;2023-04-28T00:23:54;100585.34;;;22.96;51.23
63399;BME280;49533;-34.520;150.798;2023-04-28T00:26:21;100555.59;;;22.79;50.92
63399;BME280;49533;-34.520;150.798;2023-04-28T00:28:49;100583.44;;;23.04;50.74
63399;BME280;49533;-34.520;150.798;2023-04-28T00:31:16;100579.50;;;23.09;50.67
63399;BME280;49533;-34.520;150.798;2023-04-28T00:33:44;100556.91;;;22.99;50.50
63399;BME280;49533;-34.520;150.798;2023-04-28T00:36:11;100560.47;;;23.04;50.20
63399;BME280;49533;-34.520;150.798;2023-04-28T00:38:38;100547.41;;;23.04;50.14
63399;BME280;49533;-34.520;150.798;2023-04-28T00:41:05;100523.59;;;22.89;50.24
63399;BME280;49533;-34.520;150.798;2023-04-28T00:43:45;100531.97;;;23.10;49.88
63399;BME280;49533;-34.520;150.798;2023-04-28T00:46:21;100543.88;;;23.18;50.24
63399;BME280;49533;-34.520;150.798;2023-04-28T00:48:48;100520.88;;;23.03;50.20
63399;BME280;49533;-34.520;150.798;2023-04-28T00:51:16;100510.59;;;23.04;50.27
63399;BME280;49533;-34.520;150.798;2023-04-28T00:53:44;100545.88;;;23.35;50.13
63399;BME280;49533;-34.520;150.798;2023-04-28T00:56:11;100536.75;;;23.31;50.26
63399;BME280;49533;-34.520;150.798;2023-04-28T00:58:38;100501.13;;;23.22;49.98
63399;BME280;49533;-34.520;150.798;2023-04-28T01:01:08;100505.50;;;23.27;49.81
63399;BME280;49533;-34.520;150.798;2023-04-28T01:03:38;100470.22;;;23.13;49.88
63399;BME280;49533;-34.520;150.798;2023-04-28T01:06:06;100522.53;;;23.51;49.80
63399;BME280;49533;-34.520;150.798;2023-04-28T01:08:36;100528.50;;;23.53;49.81
63399;BME280;49533;-34.520;150.798;2023-04-28T01:11:03;100514.22;;;23.54;49.82
63399;BME280;49533;-34.520;150.798;2023-04-28T01:13:31;100494.03;;;23.39;49.53
63399;BME280;49533;-34.520;150.798;2023-04-28T01:15:58;100484.50;;;23.30;49.22
63399;BME280;49533;-34.520;150.798;2023-04-28T01:18:26;100528.06;;;23.61;48.67
63399;BME280;49533;-34.520;150.798;2023-04-28T01:20:53;100494.00;;;23.54;48.64
63399;BME280;49533;-34.520;150.798;2023-04-28T01:23:21;100477.38;;;23.54;49.03
63399;BME280;49533;-34.520;150.798;2023-04-28T01:25:48;100491.63;;;23.70;48.97
63399;BME280;49533;-34.520;150.798;2023-04-28T01:28:15;100469.06;;;23.54;48.83
63399;BME280;49533;-34.520;150.798;2023-04-28T01:30:42;100459.16;;;23.56;48.79
63399;BME280;49533;-34.520;150.798;2023-04-28T01:33:10;100464.69;;;23.63;48.96
63399;BME280;49533;-34.520;150.798;2023-04-28T01:35:38;100464.31;;;23.72;48.67
63399;BME280;49533;-34.520;150.798;2023-04-28T01:38:05;100477.38;;;23.82;48.67
63399;BME280;49533;-34.520;150.798;2023-04-28T01:40:32;100467.47;;;23.85;48.40
63399;BME280;49533;-34.520;150.798;2023-04-28T01:42:59;100440.91;;;23.66;48.65
63399;BME280;49533;-34.520;150.798;2023-04-28T01:45:27;100460.31;;;23.87;48.51
63399;BME280;49533;-34.520;150.798;2023-04-28T01:47:54;100418.75;;;23.73;48.34
63399;BME280;49533;-34.520;150.798;2023-04-28T01:50:21;100447.25;;;23.92;48.72
63399;BME280;49533;-34.520;150.798;2023-04-28T01:52:48;100392.19;;;23.61;48.29
63399;BME280;49533;-34.520;150.798;2023-04-28T01:55:15;100406.47;;;23.78;48.53
63399;BME280;49533;-34.520;150.798;2023-04-28T01:57:42;100422.66;;;23.90;48.37
63399;BME280;49533;-34.520;150.798;2023-04-28T02:00:10;100400.47;;;23.86;48.50
63399;BME280;49533;-34.520;150.798;2023-04-28T02:02:37;100412.75;;;23.96;48.69
63399;BME280;49533;-34.520;150.798;2023-04-28T02:05:05;100379.09;;;23.83;48.81
63399;BME280;49533;-34.520;150.798;2023-04-28T02:07:33;100411.53;;;24.04;48.73
63399;BME280;49533;-34.520;150.798;2023-04-28T02:10:00;100350.19;;;23.70;48.43
63399;BME280;49533;-34.520;150.798;2023-04-28T02:12:27;100362.81;;;23.89;48.63
63399;BME280;49533;-34.520;150.798;2023-04-28T02:14:54;100399.22;;;24.09;48.53
63399;BME280;49533;-34.520;150.798;2023-04-28T02:17:21;100378.19;;;24.08;48.68
63399;BME280;49533;-34.520;150.798;2023-04-28T02:19:54;100347.75;;;23.94;48.25
63399;BME280;49533;-34.520;150.798;2023-04-28T02:22:23;100372.63;;;24.15;48.43
63399;BME280;49533;-34.520;150.798;2023-04-28T02:24:50;100269.81;;;23.41;48.13
63399;BME280;49533;-34.520;150.798;2023-04-28T02:27:17;100320.41;;;23.89;47.90
63399;BME280;49533;-34.520;150.798;2023-04-28T02:29:45;100353.22;;;24.12;48.31
63399;BME280;49533;-34.520;150.798;2023-04-28T02:32:12;100363.09;;;24.20;47.84
63399;BME280;49533;-34.520;150.798;2023-04-28T02:34:39;100328.28;;;24.04;47.75
63399;BME280;49533;-34.520;150.798;2023-04-28T02:37:06;100348.00;;;24.21;47.62
63399;BME280;49533;-34.520;150.798;2023-04-28T02:39:34;100344.06;;;24.22;48.23
63399;BME280;49533;-34.520;150.798;2023-04-28T02:42:01;100308.47;;;23.99;47.77
63399;BME280;49533;-34.520;150.798;2023-04-28T02:44:30;100321.09;;;24.11;47.55
63399;BME280;49533;-34.520;150.798;2023-04-28T02:46:57;100332.13;;;24.25;47.86
63399;BME280;49533;-34.520;150.798;2023-04-28T02:49:25;100281.53;;;23.96;47.98
63399;BME280;49533;-34.520;150.798;2023-04-28T02:51:52;100321.41;;;24.23;47.90
63399;BME280;49533;-34.520;150.798;2023-04-28T02:54:20;100299.28;;;24.16;48.01
63399;BME280;49533;-34.520;150.798;2023-04-28T02:56:54;100273.59;;;24.01;48.32
63399;BME280;49533;-34.520;150.798;2023-04-28T02:59:22;100303.94;;;24.30;48.59
63399;BME280;49533;-34.520;150.798;2023-04-28T03:01:50;100301.94;;;24.30;48.63
63399;BME280;49533;-34.520;150.798;2023-04-28T03:04:17;100299.16;;;24.30;48.43
63399;BME280;49533;-34.520;150.798;2023-04-28T03:06:45;100264.81;;;24.10;48.53
63399;BME280;49533;-34.520;150.798;2023-04-28T03:09:12;100263.94;;;24.20;48.42
63399;BME280;49533;-34.520;150.798;2023-04-28T03:11:40;100272.28;;;24.20;48.58
63399;BME280;49533;-34.520;150.798;2023-04-28T03:14:07;100273.41;;;24.30;48.87
63399;BME280;49533;-34.520;150.798;2023-04-28T03:16:35;100279.31;;;24.36;48.53
63399;BME280;49533;-34.520;150.798;2023-04-28T03:19:02;100277.75;;;24.35;48.50
63399;BME280;49533;-34.520;150.798;2023-04-28T03:21:30;100262.69;;;24.28;48.72
63399;BME280;49533;-34.520;150.798;2023-04-28T03:23:57;100217.31;;;24.01;48.64
63399;BME280;49533;-34.520;150.798;2023-04-28T03:26:24;100274.53;;;24.36;48.49
63399;BME280;49533;-34.520;150.798;2023-04-28T03:28:51;100273.34;;;24.37;48.53
63399;BME280;49533;-34.520;150.798;2023-04-28T03:31:19;100270.16;;;24.39;48.55
63399;BME280;49533;-34.520;150.798;2023-04-28T03:33:46;100215.28;;;24.05;48.60
63399;BME280;49533;-34.520;150.798;2023-04-28T03:36:13;100262.22;;;24.41;48.36
63399;BME280;49533;-34.520;150.798;2023-04-28T03:38:40;100258.25;;;24.42;48.40
63399;BME280;49533;-34.520;150.798;2023-04-28T03:41:08;100235.66;;;24.36;48.23
63399;BME280;49533;-34.520;150.798;2023-04-28T03:43:35;100148.44;;;23.81;48.48
63399;BME280;49533;-34.520;150.798;2023-04-28T03:46:04;100250.72;;;24.46;48.36
63399;BME280;49533;-34.520;150.798;2023-04-28T03:48:31;100243.16;;;24.46;48.65
63399;BME280;49533;-34.520;150.798;2023-04-28T03:50:58;100247.94;;;24.46;48.52
63399;BME280;49533;-34.520;150.798;2023-04-28T03:53:25;100234.81;;;24.46;48.64
63399;BME280;49533;-34.520;150.798;2023-04-28T03:55:52;100197.66;;;24.26;48.51
63399;BME280;49533;-34.520;150.798;2023-04-28T03:58:19;100218.22;;;24.39;47.97
63399;BME280;49533;-34.520;150.798;2023-04-28T04:00:47;100212.25;;;24.41;48.12
63399;BME280;49533;-34.520;150.798;2023-04-28T04:03:14;100197.66;;;24.29;47.98
63399;BME280;49533;-34.520;150.798;2023-04-28T04:05:41;100210.25;;;24.41;48.21
63399;BME280;49533;-34.520;150.798;2023-04-28T04:08:08;100170.34;;;24.24;47.77
63399;BME280;49533;-34.520;150.798;2023-04-28T04:10:35;100217.63;;;24.66;47.54
63399;BME280;49533;-34.520;150.798;2023-04-28T04:13:03;100203.34;;;24.64;46.88
63399;BME280;49533;-34.520;150.798;2023-04-28T04:15:31;100207.22;;;24.73;46.99
63399;BME280;49533;-34.520;150.798;2023-04-28T04:17:58;100187.47;;;24.64;46.86
63399;BME280;49533;-34.520;150.798;2023-04-28T04:20:25;100149.91;;;24.49;47.19
63399;BME280;49533;-34.520;150.798;2023-04-28T04:22:52;100166.81;;;24.65;47.42
63399;BME280;49533;-34.520;150.798;2023-04-28T04:25:19;100203.09;;;24.89;47.11
63399;BME280;49533;-34.520;150.798;2023-04-28T04:27:47;100099.34;;;24.23;47.08
63399;BME280;49533;-34.520;150.798;2023-04-28T04:30:14;100179.38;;;24.81;47.25
63399;BME280;49533;-34.520;150.798;2023-04-28T04:32:41;100176.63;;;24.77;46.69
63399;BME280;49533;-34.520;150.798;2023-04-28T04:35:09;100166.75;;;24.72;46.14
63399;BME280;49533;-34.520;150.798;2023-04-28T04:37:36;100199.03;;;24.97;46.04
63399;BME280;49533;-34.520;150.798;2023-04-28T04:40:03;100187.19;;;24.93;46.22
63399;BME280;49533;-34.520;150.798;2023-04-28T04:42:31;100139.06;;;24.65;46.43
63399;BME280;49533;-34.520;150.798;2023-04-28T04:44:58;100183.59;;;24.92;46.49
63399;BME280;49533;-34.520;150.798;2023-04-28T04:47:26;100131.16;;;24.60;46.21
63399;BME280;49533;-34.520;150.798;2023-04-28T04:49:56;100155.94;;;24.82;46.65
63399;BME280;49533;-34.520;150.798;2023-04-28T04:52:23;100182.28;;;25.04;46.12
63399;BME280;49533;-34.520;150.798;2023-04-28T04:54:50;100178.69;;;25.07;46.78
63399;BME280;49533;-34.520;150.798;2023-04-28T04:57:18;100173.50;;;25.09;46.42
63399;BME280;49533;-34.520;150.798;2023-04-28T04:59:45;100175.88;;;25.11;46.23
63399;BME280;49533;-34.520;150.798;2023-04-28T05:02:12;100117.16;;;24.71;46.64
63399;BME280;49533;-34.520;150.798;2023-04-28T05:04:39;100177.84;;;25.10;46.54
63399;BME280;49533;-34.520;150.798;2023-04-28T05:07:06;100159.28;;;25.00;46.96
63399;BME280;49533;-34.520;150.798;2023-04-28T05:09:34;100144.34;;;24.90;47.42
63399;BME280;49533;-34.520;150.798;2023-04-28T05:12:01;100175.91;;;25.07;47.31
63399;BME280;49533;-34.520;150.798;2023-04-28T05:14:28;100176.28;;;25.09;47.44
63399;BME280;49533;-34.520;150.798;2023-04-28T05:16:55;100178.69;;;25.07;47.76
63399;BME280;49533;-34.520;150.798;2023-04-28T05:19:23;100142.81;;;24.86;47.75
63399;BME280;49533;-34.520;150.798;2023-04-28T05:21:50;100151.47;;;24.91;47.66
63399;BME280;49533;-34.520;150.798;2023-04-28T05:24:21;100151.47;;;24.91;47.57
63399;BME280;49533;-34.520;150.798;2023-04-28T05:26:50;100173.13;;;25.07;47.94
63399;BME280;49533;-34.520;150.798;2023-04-28T05:29:20;100146.66;;;24.95;47.56
63399;BME280;49533;-34.520;150.798;2023-04-28T05:31:47;100167.16;;;25.09;47.97
63399;BME280;49533;-34.520;150.798;2023-04-28T05:34:14;100164.06;;;25.00;48.10
63399;BME280;49533;-34.520;150.798;2023-04-28T05:36:42;100156.91;;;25.02;47.88
63399;BME280;49533;-34.520;150.798;2023-04-28T05:39:09;100140.72;;;24.93;47.71
63399;BME280;49533;-34.520;150.798;2023-04-28T05:41:36;100163.94;;;25.10;47.72
63399;BME280;49533;-34.520;150.798;2023-04-28T05:44:04;100110.31;;;24.79;48.30
63399;BME280;49533;-34.520;150.798;2023-04-28T05:46:31;100160.81;;;25.08;48.20
63399;BME280;49533;-34.520;150.798;2023-04-28T05:48:59;100159.94;;;25.15;47.92
63399;BME280;49533;-34.520;150.798;2023-04-28T05:51:27;100164.69;;;25.14;48.39
63399;BME280;49533;-34.520;150.798;2023-04-28T05:53:54;100154.38;;;25.15;48.47
63399;BME280;49533;-34.520;150.798;2023-04-28T05:56:22;100152.81;;;25.14;48.67
63399;BME280;49533;-34.520;150.798;2023-04-28T05:58:49;100149.59;;;25.15;48.52
63399;BME280;49533;-34.520;150.798;2023-04-28T06:01:16;100138.59;;;25.05;48.67
63399;BME280;49533;-34.520;150.798;2023-04-28T06:03:44;100108.63;;;24.89;48.19
63399;BME280;49533;-34.520;150.798;2023-04-28T06:06:11;100142.16;;;25.05;49.00
63399;BME280;49533;-34.520;150.798;2023-04-28T06:08:39;100147.22;;;25.17;48.56
63399;BME280;49533;-34.520;150.798;2023-04-28T06:11:06;100146.03;;;25.15;48.61
63399;BME280;49533;-34.520;150.798;2023-04-28T06:13:33;100151.59;;;25.19;48.60
63399;BME280;49533;-34.520;150.798;2023-04-28T06:16:00;100136.91;;;25.14;48.80
63399;BME280;49533;-34.520;150.798;2023-04-28T06:18:29;100138.03;;;25.21;48.75
63399;BME280;49533;-34.520;150.798;2023-04-28T06:20:59;100119.91;;;25.09;49.18
63399;BME280;49533;-34.520;150.798;2023-04-28T06:23:27;100091.13;;;24.92;49.06
63399;BME280;49533;-34.520;150.798;2023-04-28T06:25:54;100140.78;;;25.24;48.88
63399;BME280;49533;-34.520;150.798;2023-04-28T06:28:21;100131.22;;;25.25;49.27
63399;BME280;49533;-34.520;150.798;2023-04-28T06:30:48;100101.31;;;25.02;49.47
63399;BME280;49533;-34.520;150.798;2023-04-28T06:33:15;100133.22;;;25.25;49.43
63399;BME280;49533;-34.520;150.798;2023-04-28T06:35:43;100121.78;;;25.19;49.43
63399;BME280;49533;-34.520;150.798;2023-04-28T06:38:10;100112.25;;;25.20;49.50
63399;BME280;49533;-34.520;150.798;2023-04-28T06:40:37;100085.09;;;24.97;49.21
63399;BME280;49533;-34.520;150.798;2023-04-28T06:43:06;100115.44;;;25.19;49.70
63399;BME280;49533;-34.520;150.798;2023-04-28T06:45:33;100119.34;;;25.25;49.25
63399;BME280;49533;-34.520;150.798;2023-04-28T06:48:00;100094.13;;;25.05;49.35
63399;BME280;49533;-34.520;150.798;2023-04-28T06:50:27;100118.94;;;25.23;49.68
63399;BME280;49533;-34.520;150.798;2023-04-28T06:52:55;100117.00;;;25.20;49.57
63399;BME280;49533;-34.520;150.798;2023-04-28T06:55:24;100114.22;;;25.20;49.89
63399;BME280;49533;-34.520;150.798;2023-04-28T06:57:52;100101.22;;;25.09;49.77
63399;BME280;49533;-34.520;150.798;2023-04-28T07:00:19;100113.84;;;25.17;49.51
63399;BME280;49533;-34.520;150.798;2023-04-28T07:02:47;100119.41;;;25.17;49.44
63399;BME280;49533;-34.520;150.798;2023-04-28T07:05:14;100118.63;;;25.17;49.93
63399;BME280;49533;-34.520;150.798;2023-04-28T07:07:41;100098.13;;;25.04;49.39
63399;BME280;49533;-34.520;150.798;2023-04-28T07:10:09;100124.97;;;25.17;49.77
63399;BME280;49533;-34.520;150.798;2023-04-28T07:12:36;100109.19;;;25.07;49.77
63399;BME280;49533;-34.520;150.798;2023-04-28T07:15:03;100076.53;;;24.84;49.78
63399;BME280;49533;-34.520;150.798;2023-04-28T07:17:31;100088.78;;;24.87;49.84
63399;BME280;49533;-34.520;150.798;2023-04-28T07:19:58;100087.63;;;24.88;49.97
63399;BME280;49533;-34.520;150.798;2023-04-28T07:22:25;100127.00;;;25.13;50.08
63399;BME280;49533;-34.520;150.798;2023-04-28T07:24:53;100084.47;;;24.82;50.68
63399;BME280;49533;-34.520;150.798;2023-04-28T07:27:21;100125.47;;;25.09;50.60
63399;BME280;49533;-34.520;150.798;2023-04-28T07:29:49;100082.53;;;24.79;51.12
63399;BME280;49533;-34.520;150.798;2023-04-28T07:32:16;100121.06;;;25.11;51.08
63399;BME280;49533;-34.520;150.798;2023-04-28T07:34:43;100099.06;;;24.90;50.88
63399;BME280;49533;-34.520;150.798;2023-04-28T07:37:10;100057.28;;;24.66;50.65
63399;BME280;49533;-34.520;150.798;2023-04-28T07:39:38;100113.56;;;25.08;50.72
63399;BME280;49533;-34.520;150.798;2023-04-28T07:42:05;100101.63;;;25.08;50.93
63399;BME280;49533;-34.520;150.798;2023-04-28T07:44:32;100124.13;;;25.21;50.69
63399;BME280;49533;-34.520;150.798;2023-04-28T07:47:00;100098.06;;;25.07;50.98
63399;BME280;49533;-34.520;150.798;2023-04-28T07:49:28;100136.00;;;25.25;51.00
63399;BME280;49533;-34.520;150.798;2023-04-28T07:51:55;100113.06;;;25.17;50.99
63399;BME280;49533;-34.520;150.798;2023-04-28T07:54:23;100058.66;;;24.85;50.55
63399;BME280;49533;-34.520;150.798;2023-04-28T07:56:51;100094.84;;;25.12;50.98
63399;BME280;49533;-34.520;150.798;2023-04-28T07:59:19;100035.81;;;24.70;50.89
63399;BME280;49533;-34.520;150.798;2023-04-28T08:01:46;100083.00;;;25.08;50.46
63399;BME280;49533;-34.520;150.798;2023-04-28T08:04:13;100116.88;;;25.30;50.50
63399;BME280;49533;-34.520;150.798;2023-04-28T08:06:40;100003.34;;;24.64;50.68
63399;BME280;49533;-34.520;150.798;2023-04-28T08:09:08;100110.13;;;25.31;50.33
63399;BME280;49533;-34.520;150.798;2023-04-28T08:11:35;100108.13;;;25.32;50.57
63399;BME280;49533;-34.520;150.798;2023-04-28T08:14:02;100102.56;;;25.32;50.84
63399;BME280;49533;-34.520;150.798;2023-04-28T08:16:30;100100.56;;;25.32;50.37
63399;BME280;49533;-34.520;150.798;2023-04-28T08:18:58;100104.13;;;25.33;50.41
63399;BME280;49533;-34.520;150.798;2023-04-28T08:21:25;100080.88;;;25.20;50.66
63399;BME280;49533;-34.520;150.798;2023-04-28T08:23:52;100120.81;;;25.33;50.76
63399;BME280;49533;-34.520;150.798;2023-04-28T08:26:20;100127.16;;;25.33;50.50
63399;BME280;49533;-34.520;150.798;2023-04-28T08:28:47;100081.78;;;25.09;50.33
63399;BME280;49533;-34.520;150.798;2023-04-28T08:31:16;100109.44;;;25.24;50.67
63399;BME280;49533;-34.520;150.798;2023-04-28T08:33:43;100107.88;;;25.15;50.34
63399;BME280;49533;-34.520;150.798;2023-04-28T08:36:13;100105.50;;;25.17;51.04
63399;BME280;49533;-34.520;150.798;2023-04-28T08:38:41;100104.72;;;25.17;50.44
63399;BME280;49533;-34.520;150.798;2023-04-28T08:41:09;100107.84;;;25.23;50.48
63399;BME280;49533;-34.520;150.798;2023-04-28T08:43:36;100090.88;;;25.13;50.82
63399;BME280;49533;-34.520;150.798;2023-04-28T08:46:06;100120.88;;;25.29;50.72
63399;BME280;49533;-34.520;150.798;2023-04-28T08:48:40;100018.47;;;24.59;50.67
63399;BME280;49533;-34.520;150.798;2023-04-28T08:51:09;100073.25;;;24.93;50.51
63399;BME280;49533;-34.520;150.798;2023-04-28T08:53:43;100092.13;;;25.05;50.49
63399;BME280;49533;-34.520;150.798;2023-04-28T08:56:11;100123.28;;;25.27;50.62
63399;BME280;49533;-34.520;150.798;2023-04-28T08:58:40;100107.50;;;25.17;50.92
63399;BME280;49533;-34.520;150.798;2023-04-28T09:01:08;100094.97;;;25.02;50.69
63399;BME280;49533;-34.520;150.798;2023-04-28T09:03:36;100126.91;;;25.21;50.70
63399;BME280;49533;-34.520;150.798;2023-04-28T09:06:03;100135.16;;;25.28;50.62
63399;BME280;49533;-34.520;150.798;2023-04-28T09:08:30;100131.63;;;25.27;50.48
63399;BME280;49533;-34.520;150.798;2023-04-28T09:11:07;100081.22;;;24.91;50.90
63399;BME280;49533;-34.520;150.798;2023-04-28T09:13:35;100085.94;;;24.94;50.77
63399;BME280;49533;-34.520;150.798;2023-04-28T09:16:03;100140.72;;;25.28;50.62
63399;BME280;49533;-34.520;150.798;2023-04-28T09:18:31;100105.31;;;25.01;50.78
63399;BME280;49533;-34.520;150.798;2023-04-28T09:21:07;100137.97;;;25.28;50.52
63399;BME280;49533;-34.520;150.798;2023-04-28T09:23:45;100097.75;;;25.02;50.72
63399;BME280;49533;-34.520;150.798;2023-04-28T09:26:14;100142.31;;;25.29;50.85
63399;BME280;49533;-34.520;150.798;2023-04-28T09:28:41;100063.53;;;24.74;50.88
63399;BME280;49533;-34.520;150.798;2023-04-28T09:31:22;100080.06;;;24.88;50.97
63399;BME280;49533;-34.520;150.798;2023-04-28T09:33:57;100144.72;;;25.27;50.68
63399;BME280;49533;-34.520;150.798;2023-04-28T09:36:29;100145.50;;;25.27;50.55
63399;BME280;49533;-34.520;150.798;2023-04-28T09:38:58;100137.56;;;25.26;50.63
63399;BME280;49533;-34.520;150.798;2023-04-28T09:41:39;100121.91;;;25.08;50.67
63399;BME280;49533;-34.520;150.798;2023-04-28T09:44:15;100125.75;;;25.18;50.45
63399;BME280;49533;-34.520;150.798;2023-04-28T09:46:44;100121.00;;;25.19;50.94
63399;BME280;49533;-34.520;150.798;2023-04-28T09:49:13;100123.31;;;25.24;50.47
63399;BME280;49533;-34.520;150.798;2023-04-28T09:51:40;100099.44;;;24.95;50.91
63399;BME280;49533;-34.520;150.798;2023-04-28T09:54:08;100106.84;;;25.06;50.47
63399;BME280;49533;-34.520;150.798;2023-04-28T09:56:35;100031.25;;;24.53;50.68
63399;BME280;49533;-34.520;150.798;2023-04-28T09:59:04;100111.50;;;25.12;50.72
63399;BME280;49533;-34.520;150.798;2023-04-28T10:01:36;100140.81;;;25.21;50.55
63399;BME280;49533;-34.520;150.798;2023-04-28T10:04:04;100130.06;;;25.23;50.75
63399;BME280;49533;-34.520;150.798;2023-04-28T10:06:34;100137.69;;;25.19;50.73
63399;BME280;49533;-34.520;150.798;2023-04-28T10:09:02;100136.88;;;25.18;50.70
63399;BME280;49533;-34.520;150.798;2023-04-28T10:11:29;100141.66;;;25.17;50.45
63399;BME280;49533;-34.520;150.798;2023-04-28T10:13:58;100134.91;;;25.15;50.63
63399;BME280;49533;-34.520;150.798;2023-04-28T10:16:29;100149.59;;;25.15;50.63
63399;BME280;49533;-34.520;150.798;2023-04-28T10:18:57;100118.13;;;24.91;50.89
63399;BME280;49533;-34.520;150.798;2023-04-28T10:21:26;100140.91;;;25.13;50.83
63399;BME280;49533;-34.520;150.798;2023-04-28T10:24:08;99874.72;;;23.26;50.41
63399;BME280;49533;-34.520;150.798;2023-04-28T10:26:56;100155.19;;;25.12;50.61
63399;BME280;49533;-34.520;150.798;2023-04-28T10:29:30;100113.81;;;24.87;50.52
63399;BME280;49533;-34.520;150.798;2023-04-28T10:32:15;100152.81;;;25.10;50.72
63399;BME280;49533;-34.520;150.798;2023-04-28T10:34:44;100137.44;;;25.02;50.74
63399;BME280;49533;-34.520;150.798;2023-04-28T10:37:11;100137.00;;;25.07;50.50
63399;BME280;49533;-34.520;150.798;2023-04-28T10:39:48;100099.19;;;24.83;50.60
63399;BME280;49533;-34.520;150.798;2023-04-28T10:42:50;100128.69;;;25.04;50.55
63399;BME280;49533;-34.520;150.798;2023-04-28T10:48:52;100127.53;;;25.01;50.25
63399;BME280;49533;-34.520;150.798;2023-04-28T10:51:21;100108.69;;;24.82;50.22
63399;BME280;49533;-34.520;150.798;2023-04-28T10:54:09;100131.94;;;24.99;50.54
63399;BME280;49533;-34.520;150.798;2023-04-28T10:56:36;100138.69;;;24.98;50.63
63399;BME280;49533;-34.520;150.798;2023-04-28T10:59:24;100145.84;;;24.95;50.26
63399;BME280;49533;-34.520;150.798;2023-04-28T11:01:52;100151.06;;;24.93;50.56
63399;BME280;49533;-34.520;150.798;2023-04-28T11:04:20;100143.63;;;24.83;49.92
63399;BME280;49533;-34.520;150.798;2023-04-28T11:07:08;100136.09;;;24.80;50.31
63399;BME280;49533;-34.520;150.798;2023-04-28T11:09:49;100148.34;;;24.86;50.27
63399;BME280;49533;-34.520;150.798;2023-04-28T11:12:17;100152.31;;;24.85;50.55
63399;BME280;49533;-34.520;150.798;2023-04-28T11:14:45;100141.66;;;24.80;50.36
63399;BME280;49533;-34.520;150.798;2023-04-28T11:17:12;100112.88;;;24.63;50.14
63399;BME280;49533;-34.520;150.798;2023-04-28T11:19:43;100122.78;;;24.67;50.49
63399;BME280;49533;-34.520;150.798;2023-04-28T11:22:18;100144.81;;;24.82;50.01
63399;BME280;49533;-34.520;150.798;2023-04-28T11:24:57;100144.03;;;24.81;49.87
63399;BME280;49533;-34.520;150.798;2023-04-28T11:27:26;100146.03;;;24.81;50.00
63399;BME280;49533;-34.520;150.798;2023-04-28T11:29:54;100142.47;;;24.80;49.97
63399;BME280;49533;-34.520;150.798;2023-04-28T11:32:27;100117.63;;;24.66;50.41
63399;BME280;49533;-34.520;150.798;2023-04-28T11:34:56;100134.22;;;24.69;50.16
63399;BME280;49533;-34.520;150.798;2023-04-28T11:37:24;100136.56;;;24.74;50.36
63399;BME280;49533;-34.520;150.798;2023-04-28T11:39:52;100114.19;;;24.51;50.24
63399;BME280;49533;-34.520;150.798;2023-04-28T11:42:19;100081.34;;;24.39;50.61
63399;BME280;49533;-34.520;150.798;2023-04-28T11:44:50;100124.03;;;24.59;50.05
63399;BME280;49533;-34.520;150.798;2023-04-28T11:47:32;100122.34;;;24.69;50.37
63399;BME280;49533;-34.520;150.798;2023-04-28T11:50:00;100122.78;;;24.67;50.42
63399;BME280;49533;-34.520;150.798;2023-04-28T11:52:28;100070.34;;;24.32;50.35
63399;BME280;49533;-34.520;150.798;2023-04-28T11:54:56;100095.97;;;24.50;50.24
63399;BME280;49533;-34.520;150.798;2023-04-28T11:57:25;100094.78;;;24.44;50.18
63399;BME280;49533;-34.520;150.798;2023-04-28T11:59:52;100096.38;;;24.48;50.04
63399;BME280;49533;-34.520;150.798;2023-04-28T12:02:25;100099.19;;;24.41;49.86
63399;BME280;49533;-34.520;150.798;2023-04-28T12:04:54;100114.13;;;24.58;49.84
63399;BME280;49533;-34.520;150.798;2023-04-28T12:07:21;100001.38;;;23.85;49.89
63399;BME280;49533;-34.520;150.798;2023-04-28T12:10:09;100107.03;;;24.54;49.94
63399;BME280;49533;-34.520;150.798;2023-04-28T12:12:37;100091.66;;;24.42;49.94
63399;BME280;49533;-34.520;150.798;2023-04-28T12:15:05;100051.50;;;24.12;49.91
63399;BME280;49533;-34.520;150.798;2023-04-28T12:17:36;100094.41;;;24.45;49.82
63399;BME280;49533;-34.520;150.798;2023-04-28T12:20:06;100004.97;;;23.82;50.00
63399;BME280;49533;-34.520;150.798;2023-04-28T12:22:47;100104.72;;;24.41;49.59
63399;BME280;49533;-34.520;150.798;2023-04-28T12:25:16;100107.16;;;24.39;49.45
63399;BME280;49533;-34.520;150.798;2023-04-28T12:28:02;100108.34;;;24.38;49.60
63399;BME280;49533;-34.520;150.798;2023-04-28T12:30:31;100060.25;;;24.07;49.57
63399;BME280;49533;-34.520;150.798;2023-04-28T12:32:59;100065.38;;;24.12;49.39